Time;durP1;ratioP1;P1;durP2;ratioP2;P2;SDS_P1;SDS_P2;PMS_P1;PMS_P2;Temp;Humidity;BMP_temperature;BMP_pressure;BME280_temperature;BME280_humidity;BME280_pressure;Samples;Min_cycle;Max_cycle;Signal;HPM_P1;HPM_P2
2022/08/20 00:00:28;;;;;;;0.10;0.10;;;;;;;;;;4880785;29;20056;-93
2022/08/20 00:02:58;;;;;;;0.10;0.10;;;;;;;;;;4881424;29;20058;-91
2022/08/20 00:05:26;;;;;;;0.10;0.10;;;;;;;;;;4895775;29;20055;-91
2022/08/20 00:07:52;;;;;;;0.10;0.10;;;;;;;;;;4880446;29;20055;-90
2022/08/20 00:10:18;;;;;;;0.10;0.10;;;;;;;;;;4880348;29;20079;-90
2022/08/20 00:12:45;;;;;;;0.10;0.10;;;;;;;;;;4895656;29;20095;-91
2022/08/20 00:15:11;;;;;;;0.17;0.17;;;;;;;;;;4895681;29;20104;-91
2022/08/20 00:17:38;;;;;;;0.10;0.10;;;;;;;;;;4895843;29;20084;-91
2022/08/20 00:20:04;;;;;;;0.10;0.10;;;;;;;;;;4880394;29;20048;-92
2022/08/20 00:22:30;;;;;;;0.10;0.10;;;;;;;;;;4880197;29;20100;-89
2022/08/20 00:24:56;;;;;;;0.20;0.20;;;;;;;;;;4880148;29;20449;-90
2022/08/20 00:27:22;;;;;;;0.10;0.10;;;;;;;;;;4895688;29;20041;-91
2022/08/20 00:29:48;;;;;;;0.10;0.10;;;;;;;;;;4880188;29;20127;-90
2022/08/20 00:32:14;;;;;;;0.10;0.10;;;;;;;;;;4895900;29;20056;-90
2022/08/20 00:34:41;;;;;;;0.10;0.10;;;;;;;;;;4895729;29;20080;-91
2022/08/20 00:37:07;;;;;;;0.10;0.10;;;;;;;;;;4911466;29;20052;-91
2022/08/20 00:39:33;;;;;;;0.10;0.10;;;;;;;;;;4880421;29;20048;-91
2022/08/20 00:41:59;;;;;;;0.10;0.10;;;;;;;;;;4880017;29;20044;-90
2022/08/20 00:44:25;;;;;;;0.28;0.28;;;;;;;;;;4895763;29;20404;-90
2022/08/20 00:46:52;;;;;;;0.10;0.10;;;;;;;;;;4895453;29;20089;-91
2022/08/20 00:49:20;;;;;;;0.10;0.10;;;;;;;;;;4895760;29;20507;-89
2022/08/20 00:51:48;;;;;;;0.10;0.10;;;;;;;;;;4879713;29;20041;-90
2022/08/20 00:54:14;;;;;;;0.10;0.10;;;;;;;;;;4895572;29;20131;-90
2022/08/20 00:56:42;;;;;;;0.10;0.10;;;;;;;;;;4896268;29;20475;-91
2022/08/20 00:59:10;;;;;;;0.20;0.20;;;;;;;;;;4896241;29;20087;-91
2022/08/20 01:01:36;;;;;;;0.10;0.10;;;;;;;;;;4880928;29;20044;-91
2022/08/20 01:04:04;;;;;;;0.10;0.10;;;;;;;;;;4879966;29;20079;-90
2022/08/20 01:06:30;;;;;;;0.10;0.10;;;;;;;;;;4879765;29;20453;-90
2022/08/20 01:08:57;;;;;;;0.10;0.10;;;;;;;;;;4895739;29;20040;-91
2022/08/20 01:11:32;;;;;;;0.10;0.10;;;;;;;;;;4879552;29;20048;-91
2022/08/20 01:13:59;;;;;;;0.10;0.10;;;;;;;;;;4894674;29;20045;-90
2022/08/20 01:16:25;;;;;;;0.10;0.10;;;;;;;;;;4895354;29;20055;-91
2022/08/20 01:18:51;;;;;;;0.10;0.10;;;;;;;;;;4895199;29;20045;-91
2022/08/20 01:21:27;;;;;;;0.10;0.10;;;;;;;;;;4898818;29;20051;-91
2022/08/20 01:24:03;;;;;;;0.10;0.10;;;;;;;;;;4881983;29;20063;-90
2022/08/20 01:26:37;;;;;;;0.10;0.10;;;;;;;;;;4898757;29;20040;-90
2022/08/20 01:29:13;;;;;;;0.10;0.10;;;;;;;;;;4883227;29;20052;-91
2022/08/20 01:31:40;;;;;;;0.10;0.10;;;;;;;;;;4883644;29;20036;-92
2022/08/20 01:34:07;;;;;;;0.10;0.10;;;;;;;;;;4883256;29;20384;-91
2022/08/20 01:36:37;;;;;;;0.10;0.10;;;;;;;;;;4883456;29;20041;-91
2022/08/20 01:39:03;;;;;;;0.10;0.10;;;;;;;;;;4882766;29;20076;-92
2022/08/20 01:41:42;;;;;;;0.10;0.10;;;;;;;;;;4883260;29;20139;-91
2022/08/20 01:44:08;;;;;;;0.10;0.10;;;;;;;;;;4898504;29;20049;-92
2022/08/20 01:46:36;;;;;;;0.10;0.10;;;;;;;;;;4883170;29;20045;-92
2022/08/20 01:49:07;;;;;;;0.10;0.10;;;;;;;;;;4898430;29;20080;-92
2022/08/20 01:51:33;;;;;;;0.10;0.10;;;;;;;;;;4898606;29;20044;-91
2022/08/20 01:53:59;;;;;;;0.10;0.10;;;;;;;;;;4882829;29;20040;-91
2022/08/20 01:56:26;;;;;;;0.10;0.10;;;;;;;;;;4882633;29;20404;-91
2022/08/20 01:58:53;;;;;;;0.10;0.10;;;;;;;;;;4898436;29;20063;-91
2022/08/20 02:01:19;;;;;;;0.10;0.10;;;;;;;;;;4882471;29;20077;-90
2022/08/20 02:03:45;;;;;;;0.10;0.10;;;;;;;;;;4882399;29;20044;-90
2022/08/20 02:06:11;;;;;;;0.10;0.10;;;;;;;;;;4913902;29;20132;-90
2022/08/20 02:08:37;;;;;;;0.10;0.10;;;;;;;;;;4898320;29;20119;-91
2022/08/20 02:11:03;;;;;;;0.10;0.10;;;;;;;;;;4882304;29;20045;-90
2022/08/20 02:13:29;;;;;;;0.10;0.10;;;;;;;;;;4882556;29;20040;-90
2022/08/20 02:15:55;;;;;;;0.10;0.10;;;;;;;;;;4882225;29;20080;-90
2022/08/20 02:18:21;;;;;;;0.10;0.10;;;;;;;;;;4897794;29;20055;-90
2022/08/20 02:20:47;;;;;;;0.10;0.10;;;;;;;;;;4897786;29;20051;-90
2022/08/20 02:23:15;;;;;;;0.20;0.20;;;;;;;;;;4882214;29;20040;-90
2022/08/20 02:25:41;;;;;;;0.10;0.10;;;;;;;;;;4881644;29;20206;-91
2022/08/20 02:28:08;;;;;;;0.10;0.10;;;;;;;;;;4882086;29;20535;-91
2022/08/20 02:30:34;;;;;;;0.10;0.10;;;;;;;;;;4881578;29;20488;-91
2022/08/20 02:33:01;;;;;;;0.10;0.10;;;;;;;;;;4897148;29;20044;-91
2022/08/20 02:35:27;;;;;;;0.10;0.10;;;;;;;;;;4881724;29;20060;-91
2022/08/20 02:37:53;;;;;;;0.10;0.10;;;;;;;;;;4881881;29;20128;-91
2022/08/20 02:40:20;;;;;;;0.10;0.10;;;;;;;;;;4882047;29;20504;-91
2022/08/20 02:42:46;;;;;;;0.22;0.22;;;;;;;;;;4881727;29;20040;-90
2022/08/20 02:45:13;;;;;;;0.10;0.10;;;;;;;;;;4897166;29;20127;-91
2022/08/20 02:47:40;;;;;;;0.10;0.10;;;;;;;;;;4897443;29;20230;-91
2022/08/20 02:50:06;;;;;;;0.10;0.10;;;;;;;;;;4882021;29;20048;-90
2022/08/20 02:52:32;;;;;;;0.10;0.10;;;;;;;;;;4881827;29;20529;-92
2022/08/20 02:54:58;;;;;;;0.10;0.10;;;;;;;;;;4897138;29;20072;-92
2022/08/20 02:57:24;;;;;;;0.10;0.10;;;;;;;;;;4881836;29;20037;-91
2022/08/20 02:59:51;;;;;;;0.10;0.10;;;;;;;;;;4897146;29;20040;-91
2022/08/20 03:02:17;;;;;;;0.10;0.10;;;;;;;;;;4881910;29;20127;-91
2022/08/20 03:04:43;;;;;;;0.10;0.10;;;;;;;;;;4897071;29;20480;-92
2022/08/20 03:07:10;;;;;;;0.10;0.10;;;;;;;;;;4881775;29;20055;-93
2022/08/20 03:09:36;;;;;;;0.10;0.10;;;;;;;;;;4881870;29;20041;-92
2022/08/20 03:12:02;;;;;;;0.10;0.10;;;;;;;;;;4882170;29;20399;-91
2022/08/20 03:14:28;;;;;;;0.10;0.10;;;;;;;;;;4881519;29;20183;-92
2022/08/20 03:16:54;;;;;;;0.10;0.10;;;;;;;;;;4881363;29;20084;-91
2022/08/20 03:19:21;;;;;;;0.10;0.10;;;;;;;;;;4881634;29;20051;-92
2022/08/20 03:21:47;;;;;;;0.10;0.10;;;;;;;;;;4881187;29;20041;-92
2022/08/20 03:24:13;;;;;;;0.10;0.10;;;;;;;;;;4881566;29;20052;-91
2022/08/20 03:26:39;;;;;;;0.10;0.10;;;;;;;;;;4880982;29;20044;-91
2022/08/20 03:29:05;;;;;;;0.10;0.10;;;;;;;;;;4881372;29;20475;-92
2022/08/20 03:31:31;;;;;;;0.10;0.10;;;;;;;;;;4896887;29;20040;-91
2022/08/20 03:33:57;;;;;;;0.17;0.17;;;;;;;;;;4881243;29;20048;-91
2022/08/20 03:36:24;;;;;;;0.10;0.10;;;;;;;;;;4880707;29;20567;-90
2022/08/20 03:38:50;;;;;;;0.20;0.20;;;;;;;;;;4880978;29;20207;-90
2022/08/20 03:41:16;;;;;;;0.10;0.10;;;;;;;;;;4896449;29;20120;-91
2022/08/20 03:43:42;;;;;;;0.10;0.10;;;;;;;;;;4880545;29;20136;-90
2022/08/20 03:46:08;;;;;;;0.10;0.10;;;;;;;;;;4880764;29;20124;-91
2022/08/20 03:48:34;;;;;;;0.10;0.10;;;;;;;;;;4896584;29;20131;-90
2022/08/20 03:51:00;;;;;;;0.10;0.10;;;;;;;;;;4896375;29;20124;-90
2022/08/20 03:53:30;;;;;;;0.10;0.10;;;;;;;;;;4896205;29;20041;-90
2022/08/20 03:55:56;;;;;;;0.10;0.10;;;;;;;;;;4879862;29;20050;-91
2022/08/20 03:58:22;;;;;;;0.10;0.10;;;;;;;;;;4896055;29;20436;-91
2022/08/20 04:00:50;;;;;;;0.10;0.10;;;;;;;;;;4895966;29;20503;-90
2022/08/20 04:03:17;;;;;;;0.10;0.10;;;;;;;;;;4896188;29;20052;-89
2022/08/20 04:05:45;;;;;;;0.10;0.10;;;;;;;;;;4895591;29;20124;-90
2022/08/20 04:08:13;;;;;;;0.10;0.10;;;;;;;;;;4880723;29;20377;-91
2022/08/20 04:10:39;;;;;;;0.10;0.10;;;;;;;;;;4879892;29;20048;-90
2022/08/20 04:13:06;;;;;;;0.10;0.10;;;;;;;;;;4880712;29;20040;-91
2022/08/20 04:15:32;;;;;;;0.10;0.10;;;;;;;;;;4880364;29;20045;-91
2022/08/20 04:17:58;;;;;;;0.10;0.10;;;;;;;;;;4896154;29;20104;-91
2022/08/20 04:20:24;;;;;;;0.10;0.10;;;;;;;;;;4880684;29;20131;-91
2022/08/20 04:22:54;;;;;;;0.10;0.10;;;;;;;;;;4895833;29;20041;-92
2022/08/20 04:25:20;;;;;;;0.10;0.10;;;;;;;;;;4880357;29;20552;-90
2022/08/20 04:27:49;;;;;;;0.10;0.10;;;;;;;;;;4881003;29;20041;-92
2022/08/20 04:30:16;;;;;;;0.10;0.10;;;;;;;;;;4880584;29;20040;-92
2022/08/20 04:32:42;;;;;;;0.10;0.10;;;;;;;;;;4880126;29;20045;-90
2022/08/20 04:35:10;;;;;;;0.10;0.10;;;;;;;;;;4895756;29;20052;-92
2022/08/20 04:37:38;;;;;;;0.10;0.10;;;;;;;;;;4880655;29;20112;-92
2022/08/20 04:42:49;;;;;;;0.10;0.10;;;;;;;;;;4893257;29;20398;-91
2022/08/20 04:45:15;;;;;;;0.10;0.10;;;;;;;;;;4895601;29;20044;-91
2022/08/20 04:47:42;;;;;;;0.10;0.10;;;;;;;;;;4880246;29;20041;-91
2022/08/20 04:50:08;;;;;;;0.10;0.10;;;;;;;;;;4879976;29;20057;-91
2022/08/20 04:52:34;;;;;;;0.10;0.10;;;;;;;;;;4895606;29;20043;-92
2022/08/20 04:55:00;;;;;;;0.10;0.10;;;;;;;;;;4881627;29;20428;-92
2022/08/20 04:57:26;;;;;;;0.10;0.10;;;;;;;;;;4883996;29;20037;-91
2022/08/20 04:59:53;;;;;;;0.10;0.10;;;;;;;;;;4899552;29;20048;-91
2022/08/20 05:02:20;;;;;;;0.10;0.10;;;;;;;;;;4883634;29;20044;-90
2022/08/20 05:04:47;;;;;;;0.20;0.20;;;;;;;;;;4899476;29;20089;-90
2022/08/20 05:07:13;;;;;;;0.10;0.10;;;;;;;;;;4883797;29;20563;-90
2022/08/20 05:09:40;;;;;;;0.10;0.10;;;;;;;;;;4885010;29;20135;-90
2022/08/20 05:12:06;;;;;;;0.10;0.10;;;;;;;;;;4904237;29;20037;-90
2022/08/20 05:14:32;;;;;;;0.10;0.10;;;;;;;;;;4886766;29;20522;-92
2022/08/20 05:17:01;;;;;;;0.10;0.10;;;;;;;;;;4883688;29;20049;-89
2022/08/20 05:19:27;;;;;;;0.10;0.10;;;;;;;;;;4882942;29;20119;-88
2022/08/20 05:21:53;;;;;;;0.20;0.20;;;;;;;;;;4898666;29;20045;-89
2022/08/20 05:24:20;;;;;;;0.10;0.10;;;;;;;;;;4883028;29;20161;-89
2022/08/20 05:26:46;;;;;;;0.10;0.10;;;;;;;;;;4898654;29;20071;-89
2022/08/20 05:29:12;;;;;;;0.10;0.10;;;;;;;;;;4898598;29;20047;-89
2022/08/20 05:31:38;;;;;;;0.10;0.10;;;;;;;;;;4882882;29;20041;-91
2022/08/20 05:34:08;;;;;;;0.10;0.10;;;;;;;;;;4882714;29;20044;-88
2022/08/20 05:36:34;;;;;;;0.10;0.10;;;;;;;;;;4898232;29;20157;-89
2022/08/20 05:39:00;;;;;;;0.10;0.10;;;;;;;;;;4852431;29;20097;-92
2022/08/20 05:41:29;;;;;;;0.10;0.10;;;;;;;;;;4865113;29;20515;-93
2022/08/20 05:43:55;;;;;;;0.10;0.10;;;;;;;;;;4870966;29;20048;-93
2022/08/20 05:46:22;;;;;;;0.10;0.10;;;;;;;;;;4856585;29;20128;-93
2022/08/20 05:48:48;;;;;;;0.10;0.10;;;;;;;;;;4877213;29;20044;-94
2022/08/20 05:51:14;;;;;;;0.10;0.10;;;;;;;;;;4886469;29;20048;-93
2022/08/20 05:53:40;;;;;;;0.10;0.10;;;;;;;;;;4871369;29;20040;-93
2022/08/20 05:56:10;;;;;;;0.10;0.10;;;;;;;;;;4870532;29;20086;-94
2022/08/20 05:58:36;;;;;;;0.10;0.10;;;;;;;;;;4870939;29;20127;-95
2022/08/20 06:01:02;;;;;;;0.10;0.10;;;;;;;;;;4870299;29;20044;-93
2022/08/20 06:06:12;;;;;;;0.10;0.10;;;;;;;;;;4888215;29;20081;-94
2022/08/20 06:08:38;;;;;;;0.10;0.10;;;;;;;;;;4871339;29;20063;-93
2022/08/20 06:11:05;;;;;;;0.10;0.10;;;;;;;;;;4871122;29;20109;-94
2022/08/20 06:13:34;;;;;;;0.10;0.10;;;;;;;;;;4885297;29;20096;-95
2022/08/20 06:16:00;;;;;;;0.10;0.10;;;;;;;;;;4901053;29;20092;-94
2022/08/20 06:18:26;;;;;;;0.10;0.10;;;;;;;;;;4870488;29;20051;-93
2022/08/20 06:20:54;;;;;;;0.10;0.10;;;;;;;;;;4870037;29;20096;-89
2022/08/20 06:23:20;;;;;;;0.10;0.10;;;;;;;;;;4885243;29;20055;-93
2022/08/20 06:25:48;;;;;;;0.10;0.10;;;;;;;;;;4869875;29;20127;-92
2022/08/20 06:28:14;;;;;;;0.10;0.10;;;;;;;;;;4885741;29;20055;-92
2022/08/20 06:30:40;;;;;;;0.10;0.10;;;;;;;;;;4870238;29;20402;-91
2022/08/20 06:33:06;;;;;;;0.10;0.10;;;;;;;;;;4885227;29;20048;-93
2022/08/20 06:35:32;;;;;;;0.10;0.10;;;;;;;;;;4866243;29;20496;-91
2022/08/20 06:37:59;;;;;;;0.10;0.10;;;;;;;;;;4897366;29;20059;-90
2022/08/20 06:40:27;;;;;;;0.10;0.10;;;;;;;;;;4881805;29;20055;-91
2022/08/20 06:42:53;;;;;;;0.10;0.10;;;;;;;;;;4866219;29;20041;-92
2022/08/20 06:45:23;;;;;;;0.10;0.10;;;;;;;;;;4881970;29;20056;-90
2022/08/20 06:47:49;;;;;;;0.10;0.10;;;;;;;;;;4881671;29;20507;-90
2022/08/20 06:50:16;;;;;;;0.10;0.10;;;;;;;;;;4897642;29;20041;-90
2022/08/20 06:52:42;;;;;;;0.10;0.10;;;;;;;;;;4897593;29;20093;-90
2022/08/20 06:55:09;;;;;;;0.10;0.10;;;;;;;;;;4881395;29;20044;-90
2022/08/20 06:57:35;;;;;;;0.10;0.10;;;;;;;;;;4881467;29;20048;-90
2022/08/20 07:00:02;;;;;;;0.10;0.10;;;;;;;;;;4865894;29;20480;-90
2022/08/20 07:02:28;;;;;;;0.10;0.10;;;;;;;;;;4881478;29;20083;-89
2022/08/20 07:04:54;;;;;;;0.10;0.10;;;;;;;;;;4881382;29;20445;-90
2022/08/20 07:07:20;;;;;;;0.10;0.10;;;;;;;;;;4881275;29;20453;-89
2022/08/20 07:09:46;;;;;;;0.10;0.10;;;;;;;;;;4865999;29;20040;-89
2022/08/20 07:12:13;;;;;;;0.10;0.10;;;;;;;;;;4881988;29;20106;-90
2022/08/20 07:14:39;;;;;;;0.10;0.10;;;;;;;;;;4866006;29;20036;-90
2022/08/20 07:17:05;;;;;;;0.10;0.10;;;;;;;;;;4896113;29;20052;-90
2022/08/20 07:19:31;;;;;;;0.17;0.17;;;;;;;;;;4881283;29;20396;-90
2022/08/20 07:21:57;;;;;;;0.10;0.10;;;;;;;;;;4896865;29;20040;-91
2022/08/20 07:24:23;;;;;;;0.10;0.10;;;;;;;;;;4896316;29;20051;-89
2022/08/20 07:26:50;;;;;;;0.10;0.10;;;;;;;;;;4880955;29;20482;-89
2022/08/20 07:29:17;;;;;;;0.10;0.10;;;;;;;;;;4896753;29;20408;-90
2022/08/20 07:34:29;;;;;;;0.10;0.10;;;;;;;;;;4865757;29;20377;-90
2022/08/20 07:36:58;;;;;;;0.10;0.10;;;;;;;;;;4896482;29;20048;-90
2022/08/20 07:39:24;;;;;;;0.10;0.10;;;;;;;;;;4896301;29;20523;-90
2022/08/20 07:42:01;;;;;;;0.10;0.10;;;;;;;;;;4880761;29;20496;-89
2022/08/20 07:44:28;;;;;;;0.10;0.10;;;;;;;;;;4896247;29;20048;-89
2022/08/20 07:46:54;;;;;;;0.10;0.10;;;;;;;;;;4896260;29;20055;-89
2022/08/20 07:49:20;;;;;;;0.10;0.10;;;;;;;;;;4880462;29;20044;-89
2022/08/20 07:51:46;;;;;;;0.10;0.10;;;;;;;;;;4880666;29;20036;-90
2022/08/20 07:54:14;;;;;;;0.10;0.10;;;;;;;;;;4880473;29;20203;-91
2022/08/20 07:56:40;;;;;;;0.10;0.10;;;;;;;;;;4880562;29;20048;-90
2022/08/20 07:59:05;;;;;;;0.10;0.10;;;;;;;;;;4880477;29;20416;-89
2022/08/20 08:01:32;;;;;;;0.10;0.10;;;;;;;;;;4896027;29;20043;-89
2022/08/20 08:03:58;;;;;;;0.10;0.10;;;;;;;;;;4880211;29;20096;-89
2022/08/20 08:06:25;;;;;;;0.15;0.15;;;;;;;;;;4896270;29;20059;-90
2022/08/20 08:08:51;;;;;;;0.17;0.17;;;;;;;;;;4878399;29;20032;-90
2022/08/20 08:11:18;;;;;;;0.30;0.30;;;;;;;;;;4910447;29;20044;-90
2022/08/20 08:13:44;;;;;;;0.10;0.10;;;;;;;;;;4914447;29;20492;-90
2022/08/20 08:16:10;;;;;;;0.17;0.17;;;;;;;;;;4914546;29;20092;-90
2022/08/20 08:18:40;;;;;;;0.10;0.10;;;;;;;;;;4914497;29;20048;-90
2022/08/20 08:21:07;;;;;;;0.10;0.10;;;;;;;;;;4899018;29;20056;-89
2022/08/20 08:23:33;;;;;;;0.10;0.10;;;;;;;;;;4914750;29;20044;-91
2022/08/20 08:25:59;;;;;;;0.10;0.10;;;;;;;;;;4914446;29;20399;-91
2022/08/20 08:28:28;;;;;;;0.10;0.10;;;;;;;;;;4914534;29;20491;-90
2022/08/20 08:30:54;;;;;;;0.10;0.10;;;;;;;;;;4917363;29;20427;-92
2022/08/20 08:33:26;;;;;;;0.10;0.10;;;;;;;;;;4902850;29;20044;-91
2022/08/20 08:35:53;;;;;;;0.10;0.10;;;;;;;;;;4918214;29;20531;-92
2022/08/20 08:38:20;;;;;;;0.10;0.10;;;;;;;;;;4918647;29;20495;-94
2022/08/20 08:40:47;;;;;;;0.20;0.20;;;;;;;;;;4902651;29;20059;-90
2022/08/20 08:43:13;;;;;;;0.10;0.10;;;;;;;;;;4918388;29;20048;-89
2022/08/20 08:45:44;;;;;;;0.10;0.10;;;;;;;;;;4917942;29;20487;-91
2022/08/20 08:48:13;;;;;;;0.17;0.17;;;;;;;;;;4902101;29;20036;-91
2022/08/20 08:50:41;;;;;;;0.20;0.20;;;;;;;;;;4902583;29;20086;-90
2022/08/20 08:53:08;;;;;;;0.20;0.20;;;;;;;;;;4918198;29;20498;-90
2022/08/20 08:55:34;;;;;;;0.20;0.20;;;;;;;;;;4902147;29;20054;-90
2022/08/20 08:58:00;;;;;;;0.20;0.20;;;;;;;;;;4917965;29;20055;-91
2022/08/20 09:00:29;;;;;;;0.20;0.20;;;;;;;;;;4918363;29;20078;-89
2022/08/20 09:03:07;;;;;;;0.20;0.20;;;;;;;;;;4901755;29;20063;-90
2022/08/20 09:05:36;;;;;;;0.20;0.20;;;;;;;;;;4917641;29;20135;-89
2022/08/20 09:08:02;;;;;;;0.20;0.20;;;;;;;;;;4933740;29;20115;-89
2022/08/20 09:10:28;;;;;;;0.20;0.20;;;;;;;;;;4902131;29;20032;-90
2022/08/20 09:12:54;;;;;;;0.20;0.20;;;;;;;;;;4917789;29;20040;-89
2022/08/20 09:15:20;;;;;;;0.13;0.13;;;;;;;;;;4902672;29;20127;-91
2022/08/20 09:17:46;;;;;;;0.10;0.10;;;;;;;;;;4917795;29;20091;-92
2022/08/20 09:20:12;;;;;;;0.20;0.20;;;;;;;;;;4917601;29;20506;-89
2022/08/20 09:22:38;;;;;;;0.20;0.20;;;;;;;;;;4917673;29;20044;-88
2022/08/20 09:25:05;;;;;;;0.20;0.20;;;;;;;;;;4917256;29;20052;-90
2022/08/20 09:27:31;;;;;;;0.20;0.20;;;;;;;;;;4917472;29;20071;-90
2022/08/20 09:29:57;;;;;;;0.20;0.20;;;;;;;;;;4933639;29;20048;-89
2022/08/20 09:32:23;;;;;;;0.20;0.20;;;;;;;;;;4933460;29;20399;-90
2022/08/20 09:34:54;;;;;;;0.20;0.20;;;;;;;;;;4917298;29;20052;-90
2022/08/20 09:37:20;;;;;;;;;;;;;;;;;;4917309;29;20051;-86
2022/08/20 09:39:46;;;;;;;0.20;0.20;;;;;;;;;;4901431;29;19919;-87
2022/08/20 09:42:13;;;;;;;0.20;0.20;;;;;;;;;;4901201;29;20048;-87
2022/08/20 09:44:39;;;;;;;0.20;0.20;;;;;;;;;;4917125;29;20499;-88
2022/08/20 09:47:05;;;;;;;0.20;0.20;;;;;;;;;;4917243;29;20130;-88
2022/08/20 09:49:31;;;;;;;0.20;0.20;;;;;;;;;;4917204;29;20048;-91
2022/08/20 09:51:58;;;;;;;0.68;0.68;;;;;;;;;;4901412;29;20051;-88
2022/08/20 09:54:28;;;;;;;0.20;0.20;;;;;;;;;;4932846;29;20040;-87
2022/08/20 09:56:54;;;;;;;0.20;0.20;;;;;;;;;;4916510;29;20083;-88
2022/08/20 09:59:20;;;;;;;0.20;0.20;;;;;;;;;;4933122;29;20044;-88
2022/08/20 10:01:46;;;;;;;0.20;0.20;;;;;;;;;;4916886;29;20048;-87
2022/08/20 10:04:13;;;;;;;0.20;0.20;;;;;;;;;;4932702;29;20044;-87
2022/08/20 10:06:39;;;;;;;0.20;0.20;;;;;;;;;;4916783;29;20119;-87
2022/08/20 10:09:05;;;;;;;0.20;0.20;;;;;;;;;;4916946;29;20889;-87
2022/08/20 10:11:31;;;;;;;0.20;0.20;;;;;;;;;;4932820;29;20077;-88
2022/08/20 10:13:57;;;;;;;0.20;0.20;;;;;;;;;;4917896;29;20172;-87
2022/08/20 10:16:23;;;;;;;0.20;0.20;;;;;;;;;;4901105;29;20492;-88
2022/08/20 10:18:49;;;;;;;0.20;0.20;;;;;;;;;;4900919;29;20044;-86
2022/08/20 10:21:15;;;;;;;0.13;0.13;;;;;;;;;;4932455;29;20424;-87
2022/08/20 10:23:41;;;;;;;0.20;0.20;;;;;;;;;;4900936;29;20051;-88
2022/08/20 10:26:07;;;;;;;0.20;0.20;;;;;;;;;;4900307;29;20099;-88
2022/08/20 10:28:33;;;;;;;0.20;0.20;;;;;;;;;;4916866;29;20040;-88
2022/08/20 10:30:59;;;;;;;0.20;0.20;;;;;;;;;;4932582;29;20044;-92
2022/08/20 10:33:25;;;;;;;0.30;0.30;;;;;;;;;;4901624;29;20092;-94
2022/08/20 10:35:51;;;;;;;0.20;0.20;;;;;;;;;;4900372;29;20139;-89
2022/08/20 10:38:17;;;;;;;0.20;0.20;;;;;;;;;;4916324;29;20052;-88
2022/08/20 10:40:43;;;;;;;0.40;0.40;;;;;;;;;;4916685;29;20048;-89
2022/08/20 10:43:09;;;;;;;0.17;0.17;;;;;;;;;;4916230;29;20145;-86
2022/08/20 10:45:35;;;;;;;0.13;0.13;;;;;;;;;;4900447;29;20135;-86
2022/08/20 10:48:01;;;;;;;0.10;0.10;;;;;;;;;;4931957;29;20051;-89
2022/08/20 10:50:28;;;;;;;0.10;0.10;;;;;;;;;;4916282;29;20044;-87
2022/08/20 10:52:54;;;;;;;0.10;0.10;;;;;;;;;;4916234;29;20147;-86
2022/08/20 10:55:20;;;;;;;0.20;0.20;;;;;;;;;;4918371;29;20492;-87
2022/08/20 10:57:49;;;;;;;0.20;0.20;;;;;;;;;;4902257;29;20051;-86
2022/08/20 11:00:16;;;;;;;0.10;0.10;;;;;;;;;;4902778;29;20049;-87
2022/08/20 11:02:42;;;;;;;0.20;0.20;;;;;;;;;;4899802;29;20096;-87
2022/08/20 11:05:08;;;;;;;0.10;0.10;;;;;;;;;;4900663;29;20044;-89
2022/08/20 11:07:37;;;;;;;0.20;0.20;;;;;;;;;;4900214;29;20067;-86
2022/08/20 11:10:04;;;;;;;0.20;0.20;;;;;;;;;;4931653;29;20047;-86
2022/08/20 11:12:30;;;;;;;0.20;0.20;;;;;;;;;;4931831;29;20048;-87
2022/08/20 11:14:56;;;;;;;0.20;0.20;;;;;;;;;;4900199;29;20044;-85
2022/08/20 11:17:22;;;;;;;0.20;0.20;;;;;;;;;;4931436;29;20040;-87
2022/08/20 11:19:48;;;;;;;0.20;0.20;;;;;;;;;;4915401;29;20051;-86
2022/08/20 11:22:14;;;;;;;0.10;0.10;;;;;;;;;;4931517;29;20052;-85
2022/08/20 11:24:40;;;;;;;0.20;0.20;;;;;;;;;;4915256;29;20491;-86
2022/08/20 11:27:06;;;;;;;0.20;0.20;;;;;;;;;;4899737;29;20048;-86
2022/08/20 11:29:33;;;;;;;0.20;0.20;;;;;;;;;;4915220;29;20161;-85
2022/08/20 11:31:59;;;;;;;0.20;0.20;;;;;;;;;;4899684;29;20044;-86
2022/08/20 11:34:25;;;;;;;0.20;0.20;;;;;;;;;;4914958;29;20070;-86
2022/08/20 11:36:51;;;;;;;0.10;0.10;;;;;;;;;;4931396;29;20052;-87
2022/08/20 11:39:17;;;;;;;0.20;0.20;;;;;;;;;;4931275;29;20096;-87
2022/08/20 11:41:43;;;;;;;0.20;0.20;;;;;;;;;;4915109;29;20399;-93
2022/08/20 11:44:09;;;;;;;0.10;0.10;;;;;;;;;;4915291;29;20055;-90
2022/08/20 11:46:35;;;;;;;0.15;0.15;;;;;;;;;;4915337;29;20051;-85
2022/08/20 11:49:01;;;;;;;0.10;0.10;;;;;;;;;;4915216;29;20079;-89
2022/08/20 11:51:27;;;;;;;0.20;0.20;;;;;;;;;;4916571;29;20072;-88
2022/08/20 11:53:53;;;;;;;0.20;0.20;;;;;;;;;;4899204;29;20042;-88
2022/08/20 11:56:20;;;;;;;0.20;0.20;;;;;;;;;;4914963;29;20337;-87
2022/08/20 11:58:46;;;;;;;0.10;0.10;;;;;;;;;;4930940;29;20059;-87
2022/08/20 12:01:12;;;;;;;0.10;0.10;;;;;;;;;;4900369;29;20092;-87
2022/08/20 12:03:38;;;;;;;0.10;0.10;;;;;;;;;;4917925;29;20107;-88
2022/08/20 12:06:04;;;;;;;0.10;0.10;;;;;;;;;;4901727;29;20051;-88
2022/08/20 12:08:30;;;;;;;0.10;0.10;;;;;;;;;;4915077;29;20091;-89
2022/08/20 12:10:56;;;;;;;0.20;0.20;;;;;;;;;;4930810;29;20105;-87
2022/08/20 12:13:22;;;;;;;0.20;0.20;;;;;;;;;;4930607;29;20492;-87
2022/08/20 12:15:49;;;;;;;0.13;0.13;;;;;;;;;;4898817;29;20047;-87
2022/08/20 12:18:15;;;;;;;0.20;0.20;;;;;;;;;;4930549;29;20130;-88
2022/08/20 12:20:41;;;;;;;0.13;0.13;;;;;;;;;;4916015;29;20083;-87
2022/08/20 12:23:07;;;;;;;0.20;0.20;;;;;;;;;;4914688;29;20044;-87
2022/08/20 12:25:33;;;;;;;0.10;0.10;;;;;;;;;;4914531;29;20124;-87
2022/08/20 12:27:59;;;;;;;0.20;0.20;;;;;;;;;;4899297;29;20071;-87
2022/08/20 12:30:25;;;;;;;0.20;0.20;;;;;;;;;;4898865;29;20104;-87
2022/08/20 12:32:51;;;;;;;0.20;0.20;;;;;;;;;;4898858;29;20124;-87
2022/08/20 12:35:17;;;;;;;0.10;0.10;;;;;;;;;;4930352;29;20052;-87
2022/08/20 12:37:43;;;;;;;0.10;0.10;;;;;;;;;;4914467;29;20051;-87
2022/08/20 12:40:10;;;;;;;0.10;0.10;;;;;;;;;;4898875;29;20403;-87
2022/08/20 12:42:36;;;;;;;0.20;0.20;;;;;;;;;;4930257;29;20096;-88
2022/08/20 12:45:02;;;;;;;0.43;0.43;;;;;;;;;;4915688;29;20048;-87
2022/08/20 12:47:29;;;;;;;0.10;0.10;;;;;;;;;;4914572;29;20055;-88
2022/08/20 12:49:56;;;;;;;0.20;0.20;;;;;;;;;;4914626;29;20123;-88
2022/08/20 12:52:22;;;;;;;0.10;0.10;;;;;;;;;;4930341;29;20307;-88
2022/08/20 12:54:48;;;;;;;0.10;0.10;;;;;;;;;;4898686;29;20499;-87
2022/08/20 12:57:32;;;;;;;0.20;0.20;;;;;;;;;;4898738;29;20055;-88
2022/08/20 12:59:58;;;;;;;0.65;0.65;;;;;;;;;;4899197;29;20044;-87
2022/08/20 13:02:24;;;;;;;0.20;0.20;;;;;;;;;;4898851;29;20141;-87
2022/08/20 13:04:50;;;;;;;0.20;0.20;;;;;;;;;;4898490;29;20087;-87
2022/08/20 13:07:16;;;;;;;0.10;0.10;;;;;;;;;;4915423;29;20051;-87
2022/08/20 13:09:42;;;;;;;0.10;0.10;;;;;;;;;;4898516;29;20127;-87
2022/08/20 13:12:08;;;;;;;0.10;0.10;;;;;;;;;;4913972;29;20127;-87
2022/08/20 13:14:35;;;;;;;0.20;0.20;;;;;;;;;;4914032;29;20047;-88
2022/08/20 13:17:01;;;;;;;0.20;0.20;;;;;;;;;;4933214;29;20491;-87
2022/08/20 13:19:27;;;;;;;0.10;0.10;;;;;;;;;;4917735;29;20104;-88
2022/08/20 13:21:53;;;;;;;0.17;0.17;;;;;;;;;;4917633;29;20044;-88
2022/08/20 13:24:19;;;;;;;0.13;0.13;;;;;;;;;;4917668;29;20510;-88
2022/08/20 13:26:45;;;;;;;0.10;0.10;;;;;;;;;;4917406;29;20555;-88
2022/08/20 13:29:12;;;;;;;0.10;0.10;;;;;;;;;;4933456;29;20044;-88
2022/08/20 13:31:38;;;;;;;0.20;0.20;;;;;;;;;;4917402;29;20048;-88
2022/08/20 13:34:04;;;;;;;0.13;0.13;;;;;;;;;;4918921;29;20048;-87
2022/08/20 13:36:30;;;;;;;0.15;0.15;;;;;;;;;;4901733;29;20521;-88
2022/08/20 13:38:56;;;;;;;0.20;0.20;;;;;;;;;;4933382;29;20407;-87
2022/08/20 13:41:22;;;;;;;0.10;0.10;;;;;;;;;;4918424;29;20040;-88
2022/08/20 13:43:48;;;;;;;0.10;0.10;;;;;;;;;;4917228;29;20044;-87
2022/08/20 13:46:14;;;;;;;0.17;0.17;;;;;;;;;;4917403;29;20385;-87
2022/08/20 13:48:40;;;;;;;0.20;0.20;;;;;;;;;;4918468;29;20051;-87
2022/08/20 13:51:06;;;;;;;0.17;0.17;;;;;;;;;;4933063;29;20040;-87
2022/08/20 13:53:32;;;;;;;0.10;0.10;;;;;;;;;;4917176;29;20044;-87
2022/08/20 13:55:58;;;;;;;0.20;0.20;;;;;;;;;;4917001;29;20047;-87
2022/08/20 13:58:24;;;;;;;0.10;0.10;;;;;;;;;;4933148;29;20044;-88
2022/08/20 14:00:50;;;;;;;0.20;0.20;;;;;;;;;;4916933;29;20543;-88
2022/08/20 14:03:16;;;;;;;0.10;0.10;;;;;;;;;;4932901;29;20072;-87
2022/08/20 14:05:42;;;;;;;0.20;0.20;;;;;;;;;;4917072;29;20095;-87
2022/08/20 14:08:09;;;;;;;0.13;0.13;;;;;;;;;;4932818;29;20547;-87
2022/08/20 14:10:35;;;;;;;0.10;0.10;;;;;;;;;;4901541;29;20048;-87
2022/08/20 14:13:02;;;;;;;0.20;0.20;;;;;;;;;;4916769;29;20479;-87
2022/08/20 14:15:28;;;;;;;0.20;0.20;;;;;;;;;;4932795;29;20040;-87
2022/08/20 14:17:54;;;;;;;0.20;0.20;;;;;;;;;;4916778;29;20388;-87
2022/08/20 14:20:21;;;;;;;0.20;0.20;;;;;;;;;;4918075;29;20055;-94
2022/08/20 14:22:47;;;;;;;0.20;0.20;;;;;;;;;;4901310;29;20376;-89
2022/08/20 14:25:13;;;;;;;0.10;0.10;;;;;;;;;;4916932;29;20047;-87
2022/08/20 14:27:40;;;;;;;0.20;0.20;;;;;;;;;;4916310;29;20048;-88
2022/08/20 14:30:07;;;;;;;0.20;0.20;;;;;;;;;;4916295;29;20048;-86
2022/08/20 14:32:33;;;;;;;0.10;0.10;;;;;;;;;;4932727;29;20040;-90
2022/08/20 14:35:00;;;;;;;0.20;0.20;;;;;;;;;;4916296;29;20055;-92
2022/08/20 14:37:27;;;;;;;0.30;0.30;;;;;;;;;;4900511;29;20044;-87
2022/08/20 14:39:55;;;;;;;0.10;0.10;;;;;;;;;;4916361;29;20055;-86
2022/08/20 14:42:22;;;;;;;0.10;0.10;;;;;;;;;;4917783;29;20043;-86
2022/08/20 14:44:48;;;;;;;0.10;0.10;;;;;;;;;;4932054;29;20495;-84
2022/08/20 14:47:27;;;;;;;0.17;0.17;;;;;;;;;;4916446;29;20050;-86